Time;durP1;ratioP1;P1;durP2;ratioP2;P2;SDS_P1;SDS_P2;PMS_P1;PMS_P2;Temp;Humidity;BMP_temperature;BMP_pressure;BME280_temperature;BME280_humidity;BME280_pressure;Samples;Min_cycle;Max_cycle;Signal;HPM_P1;HPM_P2
2022/03/02 00:02:12;;;;;;;25.63;15.43;;;;;;;4.52;60.81;101449.59;5055031;28;21431;-67
2022/03/02 00:04:39;;;;;;;21.53;15.40;;;;;;;4.36;60.62;101448.59;5044088;28;20446;-67
2022/03/02 00:07:06;;;;;;;23.43;16.67;;;;;;;4.26;60.67;101440.22;5043703;28;20454;-67
2022/03/02 00:09:32;;;;;;;24.40;15.70;;;;;;;4.19;61.24;101444.94;5056017;28;20437;-68
2022/03/02 00:11:59;;;;;;;24.50;15.67;;;;;;;4.25;61.22;101439.38;5053575;28;20441;-68
2022/03/02 00:14:26;;;;;;;20.43;15.37;;;;;;;4.32;60.58;101438.16;5053335;28;20442;-68
2022/03/02 00:16:55;;;;;;;25.67;17.13;;;;;;;4.32;60.72;101445.22;5044221;28;20485;-68
2022/03/02 00:19:21;;;;;;;21.33;16.73;;;;;;;4.21;61.22;101434.28;5043803;28;20492;-68
2022/03/02 00:21:48;;;;;;;20.07;16.00;;;;;;;4.21;60.85;101429.84;5044602;28;20504;-68
2022/03/02 00:24:15;;;;;;;23.80;16.23;;;;;;;4.08;60.80;101432.19;5043395;28;20457;-67
2022/03/02 00:26:41;;;;;;;22.83;16.67;;;;;;;3.92;60.72;101420.56;5042962;28;20485;-68
2022/03/02 00:29:08;;;;;;;25.40;15.70;;;;;;;3.71;61.05;101417.94;5044682;28;20476;-67
2022/03/02 00:31:35;;;;;;;24.23;16.70;;;;;;;3.90;59.66;101406.56;5043097;28;20454;-68
2022/03/02 00:34:03;;;;;;;20.60;15.40;;;;;;;3.94;59.84;101414.31;5049338;28;20442;-68
2022/03/02 00:36:29;;;;;;;23.53;15.40;;;;;;;4.05;59.83;101407.66;5047425;28;20449;-67
2022/03/02 00:38:56;;;;;;;26.13;17.60;;;;;;;4.08;59.02;101407.50;5044427;28;20523;-68
2022/03/02 00:41:23;;;;;;;24.43;16.17;;;;;;;4.00;58.91;101409.66;5043094;28;20450;-68
2022/03/02 00:43:49;;;;;;;25.60;17.30;;;;;;;3.91;59.45;101413.59;5044086;28;20469;-68
2022/03/02 00:46:16;;;;;;;29.20;16.90;;;;;;;3.99;59.90;101410.56;5051005;28;20536;-68
2022/03/02 00:48:43;;;;;;;24.77;17.37;;;;;;;3.99;59.25;101418.50;5042879;28;20496;-68
2022/03/02 00:51:12;;;;;;;25.50;16.47;;;;;;;3.98;58.55;101416.81;5062303;28;20472;-67
2022/03/02 00:53:39;;;;;;;22.00;16.27;;;;;;;4.02;59.40;101419.22;5050737;28;20473;-67
2022/03/02 00:56:06;;;;;;;24.23;16.87;;;;;;;4.15;58.69;101412.47;5051710;28;20460;-67
2022/03/02 00:58:33;;;;;;;21.67;16.00;;;;;;;4.21;59.49;101410.47;5062553;28;20501;-67
2022/03/02 01:00:59;;;;;;;22.10;15.40;;;;;;;4.09;60.40;101404.78;5059269;28;20444;-67
2022/03/02 01:03:26;;;;;;;20.60;15.47;;;;;;;4.01;61.88;101412.25;5052955;28;20533;-67
2022/03/02 01:05:53;;;;;;;22.37;15.60;;;;;;;3.87;62.90;101414.63;5048088;28;20492;-67
2022/03/02 01:08:21;;;;;;;27.60;15.73;;;;;;;3.81;63.29;101399.91;5056935;28;20444;-67
2022/03/02 01:10:48;;;;;;;22.80;15.17;;;;;;;3.71;63.52;101396.78;5060794;28;20460;-67
2022/03/02 01:13:15;;;;;;;22.00;15.80;;;;;;;3.75;63.89;101390.47;5060542;28;20935;-67
2022/03/02 01:15:41;;;;;;;21.90;15.37;;;;;;;3.92;63.84;101391.47;5043102;28;20450;-67
2022/03/02 01:18:08;;;;;;;23.57;14.27;;;;;;;3.90;63.77;101393.34;5060716;28;20515;-67
2022/03/02 01:20:35;;;;;;;21.13;14.80;;;;;;;3.87;63.97;101385.53;5047370;28;20460;-67
2022/03/02 01:23:01;;;;;;;20.13;15.20;;;;;;;3.77;64.11;101379.81;5042585;28;20458;-68
2022/03/02 01:25:30;;;;;;;19.67;15.23;;;;;;;3.84;64.45;101386.53;5046020;28;20458;-66
2022/03/02 01:27:56;;;;;;;23.70;15.97;;;;;;;3.98;64.18;101382.41;5041767;28;20477;-67
2022/03/02 01:30:23;;;;;;;23.30;15.63;;;;;;;4.02;63.50;101378.69;5050813;28;20478;-68
2022/03/02 01:32:50;;;;;;;21.60;15.03;;;;;;;4.01;64.03;101384.91;5059635;28;20441;-68
2022/03/02 01:35:17;;;;;;;22.57;15.63;;;;;;;3.99;64.28;101376.19;5046931;28;20879;-68
2022/03/02 01:37:43;;;;;;;22.27;14.93;;;;;;;4.11;63.71;101370.31;5056173;28;20486;-68
2022/03/02 01:40:10;;;;;;;22.13;15.07;;;;;;;4.17;63.25;101366.50;5060210;28;20457;-68
2022/03/02 01:42:39;;;;;;;21.27;14.40;;;;;;;4.14;63.14;101363.09;5061658;28;20451;-67
2022/03/02 01:45:07;;;;;;;18.23;13.60;;;;;;;4.04;63.08;101360.94;5043187;28;20449;-67
2022/03/02 01:47:34;;;;;;;20.73;15.40;;;;;;;3.99;63.62;101362.94;5053803;28;20470;-67
2022/03/02 01:50:01;;;;;;;21.40;15.63;;;;;;;3.77;62.75;101359.50;5051719;28;20945;-67
2022/03/02 01:52:28;;;;;;;24.77;15.53;;;;;;;3.88;63.37;101355.50;5061336;28;20494;-67
2022/03/02 01:54:54;;;;;;;26.53;17.40;;;;;;;3.88;62.32;101359.00;5043534;28;20454;-67
2022/03/02 01:57:21;;;;;;;21.63;15.53;;;;;;;3.68;62.34;101359.94;5041367;28;21009;-67
2022/03/02 01:59:50;;;;;;;24.50;15.47;;;;;;;3.67;62.47;101349.41;5056545;28;20465;-67
2022/03/02 02:02:17;;;;;;;21.97;14.67;;;;;;;3.69;62.42;101347.56;5055751;28;20449;-68
2022/03/02 02:04:44;;;;;;;20.63;14.90;;;;;;;3.75;62.09;101342.00;5052788;28;20476;-67
2022/03/02 02:07:11;;;;;;;23.20;14.67;;;;;;;3.76;62.71;101341.91;5044784;28;20458;-67
2022/03/02 02:09:37;;;;;;;20.50;14.73;;;;;;;3.77;62.66;101340.13;5043456;28;20453;-67
2022/03/02 02:12:04;;;;;;;20.47;14.50;;;;;;;3.82;62.54;101338.13;5052763;28;20441;-67
2022/03/02 02:14:31;;;;;;;23.10;15.37;;;;;;;3.94;62.02;101340.22;5055805;28;20469;-66
2022/03/02 02:16:59;;;;;;;23.10;14.57;;;;;;;3.98;61.68;101334.78;5043985;28;20983;-66
2022/03/02 02:19:26;;;;;;;21.97;15.27;;;;;;;3.96;61.28;101338.34;5040478;28;20485;-67
2022/03/02 02:21:54;;;;;;;21.87;14.87;;;;;;;4.08;61.58;101336.03;5041453;28;20936;-66
2022/03/02 02:24:20;;;;;;;19.97;13.33;;;;;;;4.13;61.37;101332.28;5042663;28;20452;-66
2022/03/02 02:26:47;;;;;;;21.23;13.93;;;;;;;4.07;61.53;101334.34;5059484;28;20465;-66
2022/03/02 02:29:14;;;;;;;22.60;14.40;;;;;;;4.06;61.19;101330.84;5052255;28;20446;-66
2022/03/02 02:31:41;;;;;;;23.43;14.80;;;;;;;4.10;61.66;101329.78;5059637;28;20429;-66
2022/03/02 02:34:08;;;;;;;18.60;13.80;;;;;;;4.09;61.07;101327.19;5044592;28;20468;-66
2022/03/02 02:36:36;;;;;;;20.20;14.90;;;;;;;3.90;61.10;101317.47;5057237;28;20480;-66
2022/03/02 02:39:05;;;;;;;24.73;14.40;;;;;;;3.83;60.60;101316.03;5044950;28;20568;-66
2022/03/02 02:41:32;;;;;;;20.37;13.50;;;;;;;3.98;60.78;101318.91;5051754;28;20543;-66
2022/03/02 02:43:59;;;;;;;22.07;14.60;;;;;;;4.02;60.77;101321.31;5050301;28;20812;-67
2022/03/02 02:46:25;;;;;;;19.37;13.97;;;;;;;3.95;61.55;101317.25;5040744;28;20500;-67
2022/03/02 02:48:52;;;;;;;21.53;14.23;;;;;;;3.88;62.24;101323.75;5040249;28;20482;-66
2022/03/02 02:51:19;;;;;;;22.47;14.13;;;;;;;4.00;62.46;101317.91;5057054;28;20456;-67
2022/03/02 02:53:45;;;;;;;18.57;13.93;;;;;;;4.04;61.93;101329.19;5049585;28;20442;-67
2022/03/02 02:56:13;;;;;;;20.50;13.13;;;;;;;4.06;61.06;101324.69;5041966;28;20453;-67
2022/03/02 02:58:40;;;;;;;20.33;13.97;;;;;;;4.01;59.95;101311.69;5042659;28;20492;-67
2022/03/02 03:01:07;;;;;;;19.13;13.33;;;;;;;3.93;60.82;101312.03;5048138;28;20441;-67
2022/03/02 03:03:35;;;;;;;19.73;13.43;;;;;;;3.89;61.44;101317.53;5058116;28;20464;-67
2022/03/02 03:06:02;;;;;;;21.87;15.20;;;;;;;3.92;61.73;101312.09;5046507;28;20453;-67
2022/03/02 03:08:28;;;;;;;23.07;14.63;;;;;;;3.93;61.20;101312.03;5042270;28;20495;-66
2022/03/02 03:10:55;;;;;;;18.67;13.60;;;;;;;3.92;61.15;101314.75;5054154;28;20495;-66
2022/03/02 03:13:24;;;;;;;18.07;13.20;;;;;;;3.88;61.51;101319.31;5046859;28;20485;-67
2022/03/02 03:15:52;;;;;;;20.40;14.10;;;;;;;3.81;61.80;101322.34;5041556;28;20449;-66
2022/03/02 03:18:18;;;;;;;22.93;15.00;;;;;;;3.85;61.53;101322.09;5040057;28;20478;-67
2022/03/02 03:20:45;;;;;;;19.33;13.87;;;;;;;3.98;61.63;101319.75;5043477;28;20844;-67
2022/03/02 03:23:12;;;;;;;20.10;15.00;;;;;;;3.95;61.51;101311.97;5060921;28;20445;-67
2022/03/02 03:25:39;;;;;;;20.73;15.07;;;;;;;4.00;60.78;101309.09;5057262;28;20448;-67
2022/03/02 03:28:06;;;;;;;23.50;14.70;;;;;;;3.98;60.20;101311.81;5050230;28;20453;-66
2022/03/02 03:30:35;;;;;;;19.87;14.20;;;;;;;3.84;60.44;101315.13;5052765;28;20502;-66
2022/03/02 03:33:04;;;;;;;22.57;14.17;;;;;;;3.81;61.57;101311.75;5048998;28;20553;-67
2022/03/02 03:35:31;;;;;;;21.40;14.27;;;;;;;3.92;61.98;101314.75;5054615;28;20469;-67
2022/03/02 03:37:58;;;;;;;21.27;14.50;;;;;;;4.05;62.18;101315.03;5060000;28;20485;-67
2022/03/02 03:40:25;;;;;;;19.30;14.30;;;;;;;4.10;62.68;101308.59;5044279;28;20454;-67
2022/03/02 03:42:52;;;;;;;20.00;13.57;;;;;;;4.07;62.67;101306.09;5044961;28;20437;-68
2022/03/02 03:45:19;;;;;;;20.63;14.17;;;;;;;4.01;62.84;101301.09;5046321;28;20469;-67
2022/03/02 03:47:47;;;;;;;20.80;13.80;;;;;;;3.98;63.38;101305.69;5042973;28;20571;-67
2022/03/02 03:50:15;;;;;;;20.27;14.40;;;;;;;4.02;63.04;101304.59;5049821;28;20476;-67
2022/03/02 03:52:42;;;;;;;17.93;12.93;;;;;;;3.98;62.80;101305.69;5063576;28;20753;-67
2022/03/02 03:55:10;;;;;;;23.23;13.97;;;;;;;4.13;61.37;101310.22;5058497;28;20437;-67
2022/03/02 03:57:36;;;;;;;21.63;15.50;;;;;;;4.20;61.01;101313.44;5043752;28;20458;-67
2022/03/02 04:00:06;;;;;;;18.13;13.97;;;;;;;4.13;60.71;101311.09;5045989;28;20492;-66
2022/03/02 04:02:33;;;;;;;19.27;13.83;;;;;;;3.93;60.45;101300.59;5043609;28;20831;-66
2022/03/02 04:05:01;;;;;;;17.20;13.57;;;;;;;3.46;62.29;101298.38;5043894;28;20457;-66
2022/03/02 04:07:28;;;;;;;21.83;13.13;;;;;;;3.53;64.00;101294.50;5043795;28;20454;-67
2022/03/02 04:09:55;;;;;;;26.73;14.50;;;;;;;3.56;62.70;101292.59;5051815;28;20449;-66
2022/03/02 04:12:21;;;;;;;20.33;14.07;;;;;;;3.42;62.50;101288.84;5043542;28;20473;-66
2022/03/02 04:14:48;;;;;;;16.30;12.90;;;;;;;3.43;60.94;101287.91;5044162;28;20461;-66
2022/03/02 04:17:15;;;;;;;21.23;14.50;;;;;;;3.46;61.93;101286.00;5042276;28;20453;-66
2022/03/02 04:19:42;;;;;;;15.13;12.60;;;;;;;3.43;59.41;101288.75;5044249;28;20740;-66
2022/03/02 04:22:10;;;;;;;20.27;13.47;;;;;;;3.35;60.34;101288.25;5053728;28;20425;-67
2022/03/02 04:24:37;;;;;;;19.10;14.27;;;;;;;3.39;60.29;101288.06;5044639;28;20480;-66
2022/03/02 04:27:04;;;;;;;21.40;14.37;;;;;;;3.39;58.94;101287.19;5042697;28;20952;-67
2022/03/02 04:29:31;;;;;;;18.60;13.40;;;;;;;3.36;58.93;101288.19;5044787;28;20449;-67
2022/03/02 04:31:58;;;;;;;18.07;12.93;;;;;;;3.44;59.78;101285.22;5049050;28;20950;-67
2022/03/02 04:34:25;;;;;;;18.83;12.97;;;;;;;3.49;60.07;101283.22;5061774;28;20514;-67
2022/03/02 04:36:51;;;;;;;19.37;12.30;;;;;;;3.49;60.62;101277.03;5042344;28;20454;-67
2022/03/02 04:39:19;;;;;;;17.47;13.03;;;;;;;3.51;60.68;101277.88;5047259;28;20472;-66
2022/03/02 04:41:46;;;;;;;19.03;12.77;;;;;;;3.57;60.33;101267.84;5062320;28;20445;-66
2022/03/02 04:44:13;;;;;;;16.60;11.77;;;;;;;3.66;60.38;101276.28;5061623;28;20453;-67
2022/03/02 04:46:40;;;;;;;16.73;12.60;;;;;;;3.73;60.84;101273.28;5047001;28;20501;-66
2022/03/02 04:49:12;;;;;;;20.30;13.93;;;;;;;3.72;61.33;101266.28;5043292;28;21147;-67
2022/03/02 04:51:39;;;;;;;19.10;13.63;;;;;;;3.68;60.81;101259.44;5042932;28;20511;-67
2022/03/02 04:54:06;;;;;;;16.57;13.57;;;;;;;3.81;60.45;101267.63;5058331;28;20437;-66
2022/03/02 04:56:35;;;;;;;17.77;12.83;;;;;;;3.69;61.17;101263.78;5047781;28;20504;-67
2022/03/02 04:59:03;;;;;;;21.10;13.90;;;;;;;3.64;60.69;101255.19;5043852;28;20508;-67
2022/03/02 05:01:30;;;;;;;20.37;11.97;;;;;;;3.68;60.58;101247.97;5043571;28;20480;-67
2022/03/02 05:03:57;;;;;;;14.80;12.53;;;;;;;3.62;61.71;101250.91;5047393;28;20437;-67
2022/03/02 05:06:24;;;;;;;20.10;12.50;;;;;;;3.51;61.96;101246.97;5049822;28;21051;-66
2022/03/02 05:08:50;;;;;;;17.90;12.90;;;;;;;3.50;62.57;101244.41;5045718;28;20437;-66
2022/03/02 05:11:17;;;;;;;15.77;12.13;;;;;;;3.50;62.28;101245.25;5053034;28;20449;-65
2022/03/02 05:13:45;;;;;;;19.27;12.23;;;;;;;3.48;62.62;101249.75;5062281;28;20452;-65
2022/03/02 05:16:12;;;;;;;21.43;13.83;;;;;;;3.43;63.63;101243.81;5045805;28;20461;-67
2022/03/02 05:18:44;;;;;;;18.00;12.70;;;;;;;3.45;64.04;101244.59;5044632;28;20497;-67
2022/03/02 05:21:11;;;;;;;21.13;13.37;;;;;;;3.47;63.27;101239.25;5045872;28;20480;-66
2022/03/02 05:23:38;;;;;;;19.30;13.00;;;;;;;3.55;62.78;101239.75;5053753;28;20484;-69
2022/03/02 05:26:05;;;;;;;20.17;13.83;;;;;;;3.44;63.61;101236.75;5037410;28;20453;-70
2022/03/02 05:28:32;;;;;;;22.00;14.60;;;;;;;3.36;64.35;101240.59;5038311;28;20438;-69
2022/03/02 05:31:00;;;;;;;21.63;14.80;;;;;;;3.19;65.11;101243.16;5040979;28;20446;-69
2022/03/02 05:33:27;;;;;;;17.07;13.53;;;;;;;3.19;65.23;101236.09;5041858;28;20446;-70
2022/03/02 05:35:53;;;;;;;22.47;13.37;;;;;;;3.36;63.69;101237.97;5047430;28;20493;-70
2022/03/02 05:38:20;;;;;;;20.47;13.50;;;;;;;3.34;63.92;101239.81;5041031;28;20489;-71
2022/03/02 05:40:47;;;;;;;18.07;13.77;;;;;;;3.29;64.94;101239.16;5040375;28;20468;-68
2022/03/02 05:43:14;;;;;;;20.03;13.33;;;;;;;3.28;65.76;101245.41;5042860;28;20518;-69
2022/03/02 05:45:40;;;;;;;17.80;12.20;;;;;;;3.30;65.81;101240.00;5041557;28;20489;-69
2022/03/02 05:48:09;;;;;;;19.73;14.10;;;;;;;3.27;65.85;101248.97;5038818;28;20585;-68
2022/03/02 05:50:35;;;;;;;22.60;14.40;;;;;;;3.24;65.11;101241.16;5043649;28;21089;-69
2022/03/02 05:53:03;;;;;;;24.63;14.10;;;;;;;3.33;64.92;101240.75;5053236;28;20523;-68
2022/03/02 05:55:30;;;;;;;18.47;14.10;;;;;;;3.32;65.26;101241.69;5041800;28;20442;-69
2022/03/02 05:57:56;;;;;;;18.63;12.70;;;;;;;3.24;65.97;101243.81;5040327;28;20956;-69
2022/03/02 06:00:23;;;;;;;22.50;14.63;;;;;;;3.17;67.08;101247.66;5041418;28;20970;-68
2022/03/02 06:02:50;;;;;;;23.13;14.83;;;;;;;3.26;67.17;101246.38;5039048;28;20459;-68
2022/03/02 06:05:18;;;;;;;19.23;13.70;;;;;;;3.34;66.85;101238.97;5040641;28;20442;-68
2022/03/02 06:07:44;;;;;;;22.90;14.33;;;;;;;3.39;66.43;101243.09;5040083;28;20493;-69
2022/03/02 06:10:13;;;;;;;23.97;14.53;;;;;;;3.39;66.05;101242.25;5040474;28;20467;-67
2022/03/02 06:12:40;;;;;;;18.63;13.27;;;;;;;3.46;65.97;101234.91;5039665;28;20445;-68
2022/03/02 06:15:08;;;;;;;22.60;14.60;;;;;;;3.43;66.21;101237.69;5054205;28;20885;-73
2022/03/02 06:17:36;;;;;;;20.53;15.50;;;;;;;3.41;66.75;101250.13;5051384;28;20499;-65
2022/03/02 06:20:03;;;;;;;23.00;14.77;;;;;;;3.51;67.09;101257.56;5038735;28;20876;-69
2022/03/02 06:22:32;;;;;;;24.27;15.03;;;;;;;3.48;67.31;101251.56;5044532;28;20446;-71
2022/03/02 06:38:27;;;;;;;19.50;15.10;;;;;;;3.59;66.06;101262.47;5139242;27;20552;-70
2022/03/02 06:41:02;;;;;;;20.80;15.90;;;;;;;3.45;65.69;101263.13;5130065;27;20446;-71
2022/03/02 06:43:33;;;;;;;19.50;13.97;;;;;;;3.47;65.46;101268.34;5117949;28;20457;-70
2022/03/02 06:46:02;;;;;;;20.97;14.17;;;;;;;3.50;65.02;101268.19;5118275;28;20470;-70
2022/03/02 06:48:32;;;;;;;20.73;14.33;;;;;;;3.54;64.41;101270.66;5117535;28;20426;-69
2022/03/02 06:51:01;;;;;;;21.57;14.77;;;;;;;3.59;64.56;101262.47;5117707;28;20465;-69
2022/03/02 06:53:33;;;;;;;20.63;14.50;;;;;;;3.71;63.78;101271.63;5118135;28;20958;-70
2022/03/02 06:56:01;;;;;;;18.93;13.47;;;;;;;3.84;63.87;101269.28;5117399;28;20446;-71
2022/03/02 06:58:29;;;;;;;19.30;14.10;;;;;;;3.82;62.67;101260.56;5118107;28;20904;-70
2022/03/02 07:00:57;;;;;;;21.87;14.77;;;;;;;3.86;61.79;101265.63;5117555;28;20525;-71
2022/03/02 07:03:27;;;;;;;20.93;15.70;;;;;;;4.04;61.54;101258.59;5116868;28;20991;-73
2022/03/02 07:05:55;;;;;;;19.93;15.13;;;;;;;4.19;60.76;101261.47;5103332;28;20462;-72
2022/03/02 07:08:23;;;;;;;16.97;12.40;;;;;;;4.48;60.35;101260.88;5097740;28;20435;-70
2022/03/02 07:10:52;;;;;;;19.73;13.00;;;;;;;4.71;59.77;101264.16;5096013;28;20789;-70
2022/03/02 07:13:18;;;;;;;14.53;12.10;;;;;;;4.78;56.79;101262.91;5097222;28;20435;-70
2022/03/02 07:15:45;;;;;;;16.93;11.53;;;;;;;5.01;56.20;101259.06;5097864;28;20464;-71
2022/03/02 07:18:14;;;;;;;17.73;12.90;;;;;;;5.17;55.84;101255.59;5096402;28;20495;-71
2022/03/02 07:20:41;;;;;;;16.90;12.40;;;;;;;5.92;54.82;101261.28;5096814;28;20459;-69
2022/03/02 07:23:13;;;;;;;18.17;11.53;;;;;;;7.31;51.28;101254.91;5097265;28;20443;-71
2022/03/02 07:25:42;;;;;;;14.87;12.83;;;;;;;7.94;48.02;101258.06;5096353;28;20447;-70
2022/03/02 07:28:12;;;;;;;14.67;10.97;;;;;;;8.38;46.15;101256.13;5097460;28;20493;-71
2022/03/02 07:30:39;;;;;;;22.60;10.97;;;;;;;8.28;46.28;101253.19;5095880;28;20470;-70
2022/03/02 07:33:07;;;;;;;15.63;12.60;;;;;;;9.44;42.36;101251.56;5095870;28;20969;-71
2022/03/02 07:35:35;;;;;;;15.73;10.33;;;;;;;11.24;38.58;101253.41;5094307;28;20451;-71
2022/03/02 07:38:03;;;;;;;15.20;11.40;;;;;;;12.85;34.98;101251.97;5090906;28;20583;-71
2022/03/02 07:40:30;;;;;;;11.87;10.50;;;;;;;13.32;32.62;101258.63;5083598;28;20436;-71
2022/03/02 07:42:56;;;;;;;14.97;10.80;;;;;;;13.26;33.72;101250.22;5082834;28;20478;-71
2022/03/02 07:45:24;;;;;;;14.03;10.77;;;;;;;14.17;32.87;101256.50;5083670;28;20486;-71
2022/03/02 07:47:51;;;;;;;13.23;10.60;;;;;;;13.64;31.64;101254.94;5082426;28;20496;-71
2022/03/02 07:50:18;;;;;;;12.23;10.60;;;;;;;11.81;35.06;101254.25;5081767;28;20474;-70
2022/03/02 07:52:48;;;;;;;14.57;11.30;;;;;;;11.10;36.80;101259.84;5083294;28;20993;-71
2022/03/02 07:55:17;;;;;;;16.13;11.37;;;;;;;10.48;37.50;101263.66;5083910;28;20462;-70
2022/03/02 07:57:44;;;;;;;14.17;11.90;;;;;;;9.60;40.05;101268.22;5081629;28;20875;-71
2022/03/02 08:00:12;;;;;;;16.03;12.00;;;;;;;9.08;40.68;101263.00;5082241;28;20435;-70
2022/03/02 08:02:41;;;;;;;13.20;9.90;;;;;;;8.42;41.99;101258.53;5083144;28;20455;-70
2022/03/02 08:05:09;;;;;;;15.40;10.80;;;;;;;9.10;40.21;101253.09;5081207;28;20447;-71
2022/03/02 08:07:36;;;;;;;13.60;10.70;;;;;;;10.82;37.29;101255.78;5082993;28;20551;-69
2022/03/02 08:10:04;;;;;;;13.47;10.27;;;;;;;10.07;37.45;101263.06;5081685;28;20456;-71
2022/03/02 08:12:31;;;;;;;13.07;10.00;;;;;;;9.52;38.60;101261.72;5082311;28;20531;-70
2022/03/02 08:14:58;;;;;;;12.80;10.93;;;;;;;10.35;37.48;101261.91;5082943;28;20428;-70
2022/03/02 08:17:24;;;;;;;12.73;9.77;;;;;;;11.63;35.06;101269.97;5082579;28;20455;-70
2022/03/02 08:19:53;;;;;;;17.43;10.07;;;;;;;12.89;32.99;101253.41;5080578;28;20466;-70
2022/03/02 08:22:22;;;;;;;15.10;9.60;;;;;;;13.47;31.27;101252.88;5082520;28;20547;-71
2022/03/02 08:24:54;;;;;;;13.40;9.03;;;;;;;13.61;30.03;101265.09;5082884;28;20493;-71
2022/03/02 08:27:22;;;;;;;13.47;9.37;;;;;;;13.51;30.00;101259.72;5081862;28;20503;-71
2022/03/02 08:29:52;;;;;;;11.60;9.40;;;;;;;14.03;28.63;101267.66;5081310;28;20444;-71
2022/03/02 08:32:19;;;;;;;11.30;8.67;;;;;;;14.09;27.36;101261.72;5082227;28;20957;-71
2022/03/02 08:34:47;;;;;;;14.47;9.70;;;;;;;13.92;28.50;101250.66;5078815;28;20448;-72
2022/03/02 08:37:17;;;;;;;10.47;9.00;;;;;;;13.78;27.82;101250.19;5061962;28;20704;-71
2022/03/02 08:39:44;;;;;;;11.40;9.77;;;;;;;12.79;29.16;101237.22;5062459;28;20472;-70
2022/03/02 08:42:12;;;;;;;9.70;8.47;;;;;;;12.82;28.63;101240.50;5061424;28;20457;-71
2022/03/02 08:44:39;;;;;;;11.00;8.83;;;;;;;12.90;28.75;101239.00;5062653;28;20433;-71
2022/03/02 08:47:06;;;;;;;12.17;9.10;;;;;;;12.30;28.85;101244.06;5080832;28;20484;-70
2022/03/02 08:49:33;;;;;;;10.93;9.10;;;;;;;12.69;29.01;101231.81;5081080;28;20987;-72
2022/03/02 08:52:00;;;;;;;11.43;9.40;;;;;;;12.85;28.93;101230.50;5083331;28;20452;-71
2022/03/02 08:54:30;;;;;;;10.30;8.60;;;;;;;12.63;28.96;101230.47;5082533;28;20428;-71
2022/03/02 08:56:58;;;;;;;13.50;9.13;;;;;;;14.07;26.92;101232.28;5088495;28;20455;-71
2022/03/02 08:59:25;;;;;;;13.87;10.10;;;;;;;14.74;26.38;101218.13;5083082;28;20529;-72
2022/03/02 09:01:53;;;;;;;11.20;9.97;;;;;;;11.55;30.17;101227.72;5098546;28;20451;-71
2022/03/02 09:04:22;;;;;;;10.13;8.83;;;;;;;12.41;31.01;101215.38;5071901;28;20451;-72
2022/03/02 09:06:50;;;;;;;11.10;9.50;;;;;;;14.18;27.27;101222.38;5090865;28;20482;-71
2022/03/02 09:09:17;;;;;;;11.80;9.40;;;;;;;15.04;26.16;101219.78;5091943;28;20477;-70
2022/03/02 09:11:46;;;;;;;12.13;9.43;;;;;;;15.71;25.52;101223.22;5080412;28;20543;-71
2022/03/02 09:14:13;;;;;;;11.10;9.50;;;;;;;14.77;26.20;101224.13;5087633;28;20478;-70
2022/03/02 09:16:40;;;;;;;12.77;9.50;;;;;;;14.74;26.25;101219.00;5094851;28;20662;-72
2022/03/02 09:19:07;;;;;;;12.37;10.07;;;;;;;14.42;27.09;101219.28;5099251;28;20442;-71
2022/03/02 09:21:34;;;;;;;11.37;9.03;;;;;;;15.18;26.15;101218.47;5080691;28;20479;-72
2022/03/02 09:24:01;;;;;;;15.37;9.70;;;;;;;14.66;26.96;101222.41;5095092;28;20475;-72
2022/03/02 09:26:28;;;;;;;12.60;9.37;;;;;;;14.68;27.15;101223.09;5101154;28;20435;-70
2022/03/02 09:28:56;;;;;;;9.93;8.93;;;;;;;15.50;25.56;101227.97;5101683;28;21012;-72
2022/03/02 09:31:23;;;;;;;12.13;9.03;;;;;;;15.68;24.73;101220.81;5093270;28;20452;-70
2022/03/02 09:33:56;;;;;;;10.80;9.30;;;;;;;14.59;25.57;101223.97;5077866;28;20478;-72
2022/03/02 09:36:24;;;;;;;10.97;8.93;;;;;;;14.55;26.19;101222.53;5080520;28;20592;-71
2022/03/02 09:38:51;;;;;;;11.30;9.50;;;;;;;15.41;26.05;101224.34;5081475;28;20432;-70
2022/03/02 09:41:26;;;;;;;9.77;8.77;;;;;;;16.46;24.12;101227.56;5079688;28;20444;-72
2022/03/02 09:43:58;;;;;;;13.37;9.83;;;;;;;15.89;24.89;101236.75;5080979;28;20499;-71
2022/03/02 09:46:32;;;;;;;11.40;10.00;;;;;;;16.81;23.83;101232.06;5081026;28;20452;-72
2022/03/02 09:49:04;;;;;;;10.90;8.93;;;;;;;15.54;24.45;101238.34;5079433;28;20487;-72
2022/03/02 09:51:32;;;;;;;11.30;9.50;;;;;;;14.68;25.39;101233.88;5079590;28;20452;-72
2022/03/02 09:54:02;;;;;;;10.70;8.50;;;;;;;15.88;23.64;101235.03;5080527;28;20948;-71
2022/03/02 09:56:31;;;;;;;11.17;8.90;;;;;;;16.01;23.29;101229.31;5079893;28;20805;-72
2022/03/02 09:59:01;;;;;;;10.40;8.80;;;;;;;16.32;23.37;101223.56;5080919;28;20492;-72
2022/03/02 10:01:28;;;;;;;9.67;8.43;;;;;;;15.29;24.35;101225.53;5080006;28;20482;-70
2022/03/02 10:03:55;;;;;;;10.20;8.47;;;;;;;14.72;24.85;101221.00;5080085;28;20831;-69
2022/03/02 10:06:22;;;;;;;10.20;8.77;;;;;;;14.24;25.33;101219.16;5080230;28;20455;-69
2022/03/02 10:08:51;;;;;;;10.60;8.20;;;;;;;13.29;26.02;101233.84;5080779;28;20471;-71
2022/03/02 10:11:22;;;;;;;8.93;8.00;;;;;;;12.94;26.38;101218.97;5080188;28;20482;-71
2022/03/02 10:13:49;;;;;;;11.60;8.00;;;;;;;14.25;26.16;101212.75;5080483;28;20440;-68
2022/03/02 10:16:26;;;;;;;11.03;8.63;;;;;;;15.79;24.29;101219.78;5080907;28;20483;-71
2022/03/02 10:18:56;;;;;;;10.97;9.07;;;;;;;15.90;23.66;101219.59;5079909;28;20424;-71
2022/03/02 10:21:28;;;;;;;11.00;8.77;;;;;;;14.72;24.10;101206.69;5079954;28;20751;-71
2022/03/02 10:23:59;;;;;;;13.93;8.80;;;;;;;14.15;26.09;101201.13;5079546;28;20476;-71
2022/03/02 10:26:27;;;;;;;10.90;9.10;;;;;;;14.09;25.28;101203.41;5079576;28;20443;-71
2022/03/02 10:29:00;;;;;;;10.77;8.10;;;;;;;13.77;25.46;101209.03;5080682;28;20500;-71
2022/03/02 10:31:47;;;;;;;15.67;9.27;;;;;;;14.61;24.86;101202.31;5079888;28;20470;-71
2022/03/02 10:34:31;;;;;;;10.23;8.17;;;;;;;14.80;24.25;101209.50;5077930;28;20466;-70
2022/03/02 10:37:07;;;;;;;9.13;7.77;;;;;;;14.42;24.02;101206.66;5080012;28;20897;-71
2022/03/02 10:39:49;;;;;;;9.97;8.00;;;;;;;13.24;25.19;101210.06;5080571;28;20427;-70
2022/03/02 10:42:22;;;;;;;9.47;8.33;;;;;;;13.03;25.95;101202.06;5079630;28;20820;-70
2022/03/02 10:44:55;;;;;;;9.07;7.53;;;;;;;12.34;26.96;101207.94;5080638;28;20453;-70
2022/03/02 10:47:26;;;;;;;12.13;8.60;;;;;;;12.16;27.74;101210.34;5080123;28;20483;-70
2022/03/02 10:49:53;;;;;;;10.17;7.40;;;;;;;12.69;27.70;101204.97;5078762;28;20447;-70
2022/03/02 10:52:22;;;;;;;8.40;7.50;;;;;;;14.49;24.57;101205.13;5079870;28;20467;-71
2022/03/02 10:54:50;;;;;;;11.37;8.17;;;;;;;14.84;24.13;101197.44;5080814;28;20958;-69
2022/03/02 10:57:19;;;;;;;9.43;7.43;;;;;;;14.70;24.35;101190.66;5079287;28;20501;-71
2022/03/02 10:59:46;;;;;;;10.50;8.10;;;;;;;13.77;24.70;101198.28;5080243;28;20847;-71
2022/03/02 11:02:13;;;;;;;10.60;7.23;;;;;;;13.67;25.63;101184.81;5079800;28;20566;-72
2022/03/02 11:04:43;;;;;;;9.70;8.70;;;;;;;14.37;24.15;101182.03;5078889;28;20458;-71
2022/03/02 11:07:10;;;;;;;10.37;7.70;;;;;;;13.88;24.82;101183.84;5079688;28;20484;-71
2022/03/02 11:09:38;;;;;;;9.90;7.20;;;;;;;13.50;24.83;101185.47;5080334;28;20512;-71
2022/03/02 11:12:07;;;;;;;9.83;7.90;;;;;;;14.15;23.77;101180.50;5078756;28;20480;-71
2022/03/02 11:14:33;;;;;;;8.60;7.70;;;;;;;14.00;23.26;101176.53;5083223;28;21023;-71
2022/03/02 11:17:13;;;;;;;9.33;8.20;;;;;;;13.65;24.00;101173.34;5083680;28;20448;-71
2022/03/02 11:19:46;;;;;;;9.93;7.50;;;;;;;13.41;24.69;101176.41;5081974;28;20443;-68
2022/03/02 11:22:13;;;;;;;10.97;8.87;;;;;;;13.34;23.49;101172.56;5083964;28;20451;-69
2022/03/02 11:24:41;;;;;;;7.97;7.17;;;;;;;13.92;23.71;101167.31;5083817;28;20919;-70
2022/03/02 11:27:08;;;;;;;9.77;7.60;;;;;;;12.85;24.67;101164.25;5082875;28;20479;-69
2022/03/02 11:29:35;;;;;;;9.17;7.73;;;;;;;13.30;25.12;101171.09;5083955;28;20439;-71
2022/03/02 11:32:12;;;;;;;8.73;7.87;;;;;;;12.81;25.76;101169.03;5083358;28;20475;-71
2022/03/02 11:34:44;;;;;;;9.10;7.50;;;;;;;12.96;25.91;101158.78;5080735;28;20441;-70